createdAt,value
2023-05-22T00:01:07.913Z,100.00
2023-05-22T00:03:37.086Z,100.00
2023-05-22T00:06:06.725Z,100.00
2023-05-22T00:08:34.992Z,100.00
2023-05-22T00:11:04.773Z,100.00
2023-05-22T00:13:32.936Z,100.00
2023-05-22T00:16:01.307Z,100.00
2023-05-22T00:18:38.918Z,100.00
2023-05-22T00:21:07.755Z,100.00
2023-05-22T00:23:35.888Z,100.00
2023-05-22T00:26:05.495Z,100.00
2023-05-22T00:28:33.751Z,100.00
2023-05-22T00:31:02.439Z,100.00
2023-05-22T00:33:31.066Z,100.00
2023-05-22T00:35:59.988Z,100.00
2023-05-22T00:38:37.893Z,100.00
2023-05-22T00:41:08.801Z,100.00
2023-05-22T00:43:36.975Z,100.00
2023-05-22T00:46:05.210Z,100.00
2023-05-22T00:48:33.695Z,100.00
2023-05-22T00:51:05.284Z,100.00
2023-05-22T00:53:33.685Z,100.00
2023-05-22T00:56:02.803Z,100.00
2023-05-22T00:58:33.209Z,100.00
2023-05-22T01:01:02.339Z,100.00
2023-05-22T01:03:32.422Z,100.00
2023-05-22T01:06:01.504Z,100.00
2023-05-22T01:08:29.703Z,100.00
2023-05-22T01:11:06.273Z,100.00
2023-05-22T01:13:46.354Z,100.00
2023-05-22T01:16:25.280Z,100.00
2023-05-22T01:19:02.953Z,100.00
2023-05-22T01:21:38.588Z,100.00
2023-05-22T01:24:35.701Z,100.00
2023-05-22T01:27:36.184Z,100.00
2023-05-22T01:30:21.926Z,100.00
2023-05-22T01:32:56.776Z,100.00
2023-05-22T01:35:26.561Z,100.00
2023-05-22T01:37:56.514Z,100.00
2023-05-22T01:40:28.277Z,100.00
2023-05-22T01:42:57.041Z,100.00
2023-05-22T01:45:25.502Z,100.00
2023-05-22T01:47:55.673Z,100.00
2023-05-22T01:50:24.367Z,100.00
2023-05-22T01:52:59.977Z,100.00
2023-05-22T01:55:36.338Z,100.00
2023-05-22T01:58:13.966Z,100.00
2023-05-22T02:00:46.031Z,100.00
2023-05-22T02:03:19.003Z,100.00
2023-05-22T02:05:53.158Z,100.00
2023-05-22T02:08:22.433Z,100.00
2023-05-22T02:10:52.858Z,100.00
2023-05-22T02:13:21.139Z,100.00
2023-05-22T02:15:49.894Z,100.00
2023-05-22T02:18:19.576Z,100.00
2023-05-22T02:20:48.004Z,100.00
2023-05-22T02:23:16.505Z,100.00
2023-05-22T02:25:47.427Z,100.00
2023-05-22T02:28:15.966Z,100.00
2023-05-22T02:30:44.485Z,100.00
2023-05-22T02:33:12.847Z,100.00
2023-05-22T02:35:42.592Z,100.00
2023-05-22T02:38:10.807Z,100.00
2023-05-22T02:40:39.507Z,100.00
2023-05-22T02:43:08.769Z,100.00
2023-05-22T02:45:37.393Z,100.00
2023-05-22T02:48:06.500Z,100.00
2023-05-22T02:50:34.710Z,100.00
2023-05-22T02:53:04.358Z,100.00
2023-05-22T02:55:32.616Z,100.00
2023-05-22T02:58:01.059Z,100.00
2023-05-22T03:00:29.949Z,100.00
2023-05-22T03:03:00.162Z,100.00
2023-05-22T03:05:28.696Z,100.00
2023-05-22T03:07:57.606Z,100.00
2023-05-22T03:10:27.653Z,100.00
2023-05-22T03:12:55.944Z,100.00
2023-05-22T03:15:24.186Z,100.00
2023-05-22T03:17:52.442Z,100.00
2023-05-22T03:20:23.748Z,100.00
2023-05-22T03:22:52.003Z,100.00
2023-05-22T03:25:22.010Z,100.00
2023-05-22T03:27:51.766Z,100.00
2023-05-22T03:30:20.268Z,100.00
2023-05-22T03:32:50.617Z,100.00
2023-05-22T03:35:20.489Z,100.00
2023-05-22T03:37:48.957Z,100.00
2023-05-22T03:40:17.388Z,100.00
2023-05-22T03:42:45.488Z,100.00
2023-05-22T03:45:15.202Z,100.00
2023-05-22T03:47:43.569Z,100.00
2023-05-22T03:50:12.638Z,100.00
2023-05-22T03:52:41.242Z,100.00
2023-05-22T03:55:11.059Z,100.00
2023-05-22T03:57:39.156Z,100.00
2023-05-22T04:00:10.065Z,100.00
2023-05-22T04:02:40.076Z,100.00
2023-05-22T04:05:11.164Z,100.00
2023-05-22T04:07:39.392Z,100.00
2023-05-22T04:10:08.463Z,100.00
2023-05-22T04:12:36.731Z,100.00
2023-05-22T04:15:05.298Z,100.00
2023-05-22T04:17:34.317Z,100.00
2023-05-22T04:20:05.391Z,100.00
2023-05-22T04:22:33.782Z,100.00
2023-05-22T04:25:02.310Z,100.00
2023-05-22T04:27:30.751Z,100.00
2023-05-22T04:30:00.120Z,100.00
2023-05-22T04:32:29.978Z,100.00
2023-05-22T04:35:00.954Z,100.00
2023-05-22T04:37:31.831Z,100.00
2023-05-22T04:40:06.166Z,100.00
2023-05-22T04:42:34.676Z,100.00
2023-05-22T04:45:02.786Z,100.00
2023-05-22T04:47:31.943Z,100.00
2023-05-22T04:50:02.613Z,100.00
2023-05-22T04:52:32.390Z,100.00
2023-05-22T04:55:01.501Z,100.00
2023-05-22T04:57:30.774Z,100.00
2023-05-22T04:59:59.072Z,100.00
2023-05-22T05:02:27.435Z,100.00
2023-05-22T05:04:56.233Z,100.00
2023-05-22T05:07:25.672Z,100.00
2023-05-22T05:09:55.088Z,100.00
2023-05-22T05:12:23.605Z,100.00
2023-05-22T05:14:51.784Z,100.00
2023-05-22T05:17:19.885Z,100.00
2023-05-22T05:19:48.282Z,100.00
2023-05-22T05:22:17.033Z,100.00
2023-05-22T05:24:45.115Z,100.00
2023-05-22T05:27:16.484Z,100.00
2023-05-22T05:29:44.832Z,100.00
2023-05-22T05:32:14.138Z,100.00
2023-05-22T05:34:42.573Z,100.00
2023-05-22T05:37:10.870Z,100.00
2023-05-22T05:39:39.733Z,100.00
2023-05-22T05:42:08.386Z,100.00
2023-05-22T05:44:38.433Z,100.00
2023-05-22T05:47:07.290Z,100.00
2023-05-22T05:49:35.946Z,100.00
2023-05-22T05:52:05.295Z,100.00
2023-05-22T05:54:33.377Z,100.00
2023-05-22T05:57:01.867Z,100.00
2023-05-22T05:59:33.144Z,100.00
2023-05-22T06:02:02.819Z,100.00
2023-05-22T06:04:31.082Z,100.00
2023-05-22T06:07:01.997Z,100.00
2023-05-22T06:09:33.060Z,100.00
2023-05-22T06:12:04.619Z,100.00
2023-05-22T06:14:33.449Z,100.00
2023-05-22T06:17:03.247Z,100.00
2023-05-22T06:19:34.174Z,100.00
2023-05-22T06:22:02.645Z,100.00
2023-05-22T06:24:34.015Z,100.00
2023-05-22T06:27:05.878Z,100.00
2023-05-22T06:29:34.180Z,100.00
2023-05-22T06:32:05.314Z,100.00
2023-05-22T06:34:33.706Z,100.00
2023-05-22T06:37:03.799Z,100.00
2023-05-22T06:39:34.986Z,100.00
2023-05-22T06:42:03.378Z,100.00
2023-05-22T06:44:32.039Z,100.00
2023-05-22T06:47:00.858Z,100.00
2023-05-22T06:49:32.498Z,100.00
2023-05-22T06:52:05.305Z,100.00
2023-05-22T06:54:34.283Z,100.00
2023-05-22T06:57:04.915Z,100.00
2023-05-22T06:59:33.252Z,100.00
2023-05-22T07:02:02.858Z,100.00
2023-05-22T07:04:33.177Z,100.00
2023-05-22T07:07:04.567Z,100.00
2023-05-22T07:09:33.376Z,100.00
2023-05-22T07:12:03.964Z,100.00
2023-05-22T07:14:35.604Z,100.00
2023-05-22T07:17:06.384Z,100.00
2023-05-22T07:19:36.945Z,100.00
2023-05-22T07:22:07.498Z,100.00
2023-05-22T07:24:36.251Z,100.00
2023-05-22T07:27:04.880Z,100.00
2023-05-22T07:29:33.292Z,100.00
2023-05-22T07:32:02.051Z,100.00
2023-05-22T07:34:33.612Z,100.00
2023-05-22T07:37:09.387Z,100.00
2023-05-22T07:39:37.722Z,100.00
2023-05-22T07:42:06.963Z,100.00
2023-05-22T07:44:35.623Z,99.21
2023-05-22T07:47:04.435Z,97.37
2023-05-22T07:49:32.641Z,96.46
2023-05-22T07:52:02.298Z,94.96
2023-05-22T07:54:31.052Z,94.27
2023-05-22T07:57:03.285Z,93.09
2023-05-22T07:59:33.933Z,90.55
2023-05-22T08:02:05.443Z,89.43
2023-05-22T08:04:34.051Z,88.06
2023-05-22T08:07:03.916Z,86.13
2023-05-22T08:09:32.486Z,84.76
2023-05-22T08:12:01.213Z,83.32
2023-05-22T08:14:29.669Z,83.25
2023-05-22T08:16:59.492Z,83.02
2023-05-22T08:19:27.918Z,83.27
2023-05-22T08:21:58.399Z,83.75
2023-05-22T08:24:30.737Z,83.44
2023-05-22T08:27:00.901Z,83.07
2023-05-22T08:29:30.692Z,83.26
2023-05-22T08:31:59.880Z,83.14
2023-05-22T08:34:28.632Z,84.11
2023-05-22T08:36:57.283Z,84.18
2023-05-22T08:39:25.511Z,84.36
2023-05-22T08:41:55.169Z,84.39
2023-05-22T08:44:25.351Z,84.28
2023-05-22T08:46:53.875Z,84.64
2023-05-22T08:49:24.235Z,84.66
2023-05-22T08:51:58.328Z,85.05
2023-05-22T08:54:28.769Z,84.81
2023-05-22T08:56:59.722Z,84.97
2023-05-22T08:59:28.890Z,84.88
2023-05-22T09:02:00.349Z,85.39
2023-05-22T09:04:29.095Z,85.44
2023-05-22T09:06:57.526Z,85.50
2023-05-22T09:09:25.886Z,84.47
2023-05-22T09:11:56.021Z,84.63
2023-05-22T09:14:26.472Z,84.22
2023-05-22T09:16:55.077Z,84.81
2023-05-22T09:19:23.394Z,84.55
2023-05-22T09:21:51.864Z,84.12
2023-05-22T09:24:22.267Z,84.77
2023-05-22T09:26:52.769Z,85.15
2023-05-22T09:29:21.098Z,84.72
2023-05-22T09:31:50.762Z,84.63
2023-05-22T09:34:19.306Z,84.88
2023-05-22T09:36:47.458Z,85.86
2023-05-22T09:39:15.649Z,86.31
2023-05-22T09:41:46.940Z,86.21
2023-05-22T09:44:15.663Z,86.77
2023-05-22T09:46:46.490Z,86.27
2023-05-22T09:49:17.240Z,85.84
2023-05-22T09:51:49.019Z,86.23
2023-05-22T09:54:19.206Z,86.48
2023-05-22T09:56:50.594Z,85.77
2023-05-22T09:59:22.664Z,84.67
2023-05-22T10:01:52.183Z,84.67
2023-05-22T10:04:25.860Z,83.57
2023-05-22T10:06:55.999Z,83.60
2023-05-22T10:09:34.214Z,83.40
2023-05-22T10:12:07.393Z,83.06
2023-05-22T10:14:39.050Z,83.10
2023-05-22T10:17:08.056Z,84.19
2023-05-22T10:19:40.455Z,84.39
2023-05-22T10:22:10.371Z,84.33
2023-05-22T10:24:41.282Z,84.16
2023-05-22T10:27:09.287Z,84.08
2023-05-22T10:29:43.407Z,83.74
2023-05-22T10:32:19.764Z,84.43
2023-05-22T10:34:55.870Z,83.49
2023-05-22T10:37:43.317Z,83.66
2023-05-22T10:40:16.226Z,84.27
2023-05-22T10:42:45.353Z,84.40
2023-05-22T10:45:15.140Z,84.82
2023-05-22T10:47:43.812Z,84.56
2023-05-22T10:50:13.593Z,85.61
2023-05-22T10:52:41.870Z,85.67
2023-05-22T10:55:11.548Z,85.27
2023-05-22T10:57:40.451Z,84.77
2023-05-22T11:00:14.319Z,85.43
2023-05-22T11:02:44.627Z,86.49
2023-05-22T11:05:38.796Z,86.74
2023-05-22T11:08:37.999Z,87.49
2023-05-22T11:11:14.186Z,87.54
2023-05-22T11:13:43.748Z,87.79
2023-05-22T11:16:12.520Z,87.40
2023-05-22T11:18:41.305Z,87.08
2023-05-22T11:21:14.039Z,88.19
2023-05-22T11:23:43.077Z,88.05
2023-05-22T11:26:22.768Z,87.74
2023-05-22T11:28:53.588Z,87.37
2023-05-22T11:31:24.093Z,87.62
2023-05-22T11:33:52.434Z,87.11
2023-05-22T11:36:25.414Z,88.04
2023-05-22T11:39:00.924Z,87.67
2023-05-22T11:41:34.311Z,88.40
2023-05-22T11:44:02.755Z,87.97
2023-05-22T11:46:31.689Z,87.15
2023-05-22T11:49:00.552Z,87.35
2023-05-22T11:51:30.727Z,87.29
2023-05-22T11:54:00.338Z,86.96
2023-05-22T11:56:28.527Z,87.16
2023-05-22T11:58:56.797Z,86.32
2023-05-22T12:01:24.883Z,85.59
2023-05-22T12:03:53.297Z,86.30
2023-05-22T12:06:21.607Z,87.07
2023-05-22T12:08:51.410Z,87.05
2023-05-22T12:11:20.515Z,86.87
2023-05-22T12:13:52.157Z,86.87
2023-05-22T12:16:22.038Z,86.64
2023-05-22T12:18:54.049Z,86.46
2023-05-22T12:21:22.497Z,86.79
2023-05-22T12:23:53.378Z,87.24
2023-05-22T12:26:22.305Z,86.99
2023-05-22T12:28:55.760Z,86.59
2023-05-22T12:31:24.429Z,87.16
2023-05-22T12:33:55.387Z,87.05
2023-05-22T12:36:33.346Z,86.91
2023-05-22T12:39:03.293Z,86.67
2023-05-22T12:41:33.704Z,87.05
2023-05-22T12:44:05.242Z,86.60
2023-05-22T12:46:34.093Z,86.71
2023-05-22T12:49:05.101Z,86.19
2023-05-22T12:51:34.179Z,86.76
2023-05-22T12:54:07.550Z,86.98
2023-05-22T12:56:35.953Z,87.21
2023-05-22T12:59:06.775Z,86.96
2023-05-22T13:01:35.546Z,87.67
2023-05-22T13:04:04.563Z,87.42
2023-05-22T13:06:32.732Z,87.39
2023-05-22T13:09:01.100Z,86.78
2023-05-22T13:11:31.214Z,86.40
2023-05-22T13:14:01.512Z,85.51
2023-05-22T13:16:29.782Z,85.71
2023-05-22T13:18:58.290Z,85.77
2023-05-22T13:21:27.126Z,84.85
2023-05-22T13:23:55.621Z,85.74
2023-05-22T13:26:24.150Z,85.23
2023-05-22T13:28:53.880Z,84.95
2023-05-22T13:31:22.045Z,85.55
2023-05-22T13:33:50.351Z,85.49
2023-05-22T13:36:19.169Z,84.86
2023-05-22T13:38:47.891Z,84.84
2023-05-22T13:41:18.890Z,84.53
2023-05-22T13:43:47.269Z,84.58
2023-05-22T13:46:18.329Z,84.58
2023-05-22T13:48:46.769Z,84.48
2023-05-22T13:51:14.958Z,84.83
2023-05-22T13:53:43.290Z,84.89
2023-05-22T13:56:11.674Z,84.97
2023-05-22T13:58:39.839Z,85.55
2023-05-22T14:01:08.203Z,84.97
2023-05-22T14:03:38.361Z,84.91
2023-05-22T14:06:07.144Z,84.63
2023-05-22T14:08:35.658Z,85.28
2023-05-22T14:11:04.164Z,85.30
2023-05-22T14:13:32.981Z,84.84
2023-05-22T14:16:01.341Z,84.97
2023-05-22T14:18:29.663Z,85.16
2023-05-22T14:20:59.615Z,84.53
2023-05-22T14:23:28.279Z,84.17
2023-05-22T14:25:56.586Z,83.60
2023-05-22T14:28:24.678Z,83.60
2023-05-22T14:30:52.901Z,83.94
2023-05-22T14:33:21.688Z,83.65
2023-05-22T14:35:51.691Z,84.11
2023-05-22T14:38:22.866Z,84.23
2023-05-22T14:40:54.092Z,84.39
2023-05-22T14:43:22.264Z,84.34
2023-05-22T14:45:51.080Z,84.56
2023-05-22T14:48:19.602Z,84.29
2023-05-22T14:50:48.618Z,84.30
2023-05-22T14:53:17.027Z,84.11
2023-05-22T14:55:46.664Z,83.94
2023-05-22T14:58:15.048Z,84.00
2023-05-22T15:00:45.166Z,83.56
2023-05-22T15:03:14.304Z,84.14
2023-05-22T15:05:43.236Z,83.65
2023-05-22T15:08:14.491Z,83.51
2023-05-22T15:10:42.615Z,83.97
2023-05-22T15:13:12.376Z,84.00
2023-05-22T15:15:41.901Z,83.51
2023-05-22T15:18:10.685Z,83.02
2023-05-22T15:20:39.183Z,84.05
2023-05-22T15:23:07.439Z,84.03
2023-05-22T15:25:36.807Z,84.20
2023-05-22T15:28:06.523Z,84.39
2023-05-22T15:30:42.192Z,84.34
2023-05-22T15:33:11.778Z,84.16
2023-05-22T15:35:40.999Z,84.22
2023-05-22T15:38:12.719Z,83.82
2023-05-22T15:40:41.849Z,84.20
2023-05-22T15:43:10.059Z,83.81
2023-05-22T15:45:40.347Z,84.29
2023-05-22T15:48:09.182Z,84.39
2023-05-22T15:50:37.316Z,84.37
2023-05-22T15:53:08.366Z,84.62
2023-05-22T15:55:36.660Z,83.88
2023-05-22T15:58:07.929Z,84.98
2023-05-22T16:00:41.365Z,85.06
2023-05-22T16:03:11.561Z,85.34
2023-05-22T16:05:40.478Z,85.07
2023-05-22T16:08:11.240Z,84.70
2023-05-22T16:10:41.685Z,84.91
2023-05-22T16:13:10.793Z,85.48
2023-05-22T16:15:40.336Z,85.22
2023-05-22T16:18:11.425Z,85.03
2023-05-22T16:20:40.628Z,84.98
2023-05-22T16:23:08.866Z,84.58
2023-05-22T16:25:37.123Z,85.42
2023-05-22T16:28:06.463Z,85.52
2023-05-22T16:30:34.747Z,85.74
2023-05-22T16:33:03.210Z,85.24
2023-05-22T16:35:34.225Z,85.28
2023-05-22T16:38:02.890Z,85.37
2023-05-22T16:40:31.245Z,85.10
2023-05-22T16:42:59.720Z,84.84
2023-05-22T16:45:28.184Z,85.13
2023-05-22T16:47:56.713Z,85.31
2023-05-22T16:50:24.964Z,84.88
2023-05-22T16:52:54.618Z,85.51
2023-05-22T16:55:23.020Z,85.17
2023-05-22T16:57:51.345Z,85.71
2023-05-22T17:00:20.907Z,85.63
2023-05-22T17:02:49.269Z,85.52
2023-05-22T17:05:18.013Z,85.94
2023-05-22T17:07:46.381Z,86.75
2023-05-22T17:10:15.867Z,87.04
2023-05-22T17:12:44.107Z,87.37
2023-05-22T17:15:13.592Z,87.12
2023-05-22T17:17:41.912Z,87.63
2023-05-22T17:20:13.463Z,87.64
2023-05-22T17:22:41.868Z,87.80
2023-05-22T17:25:13.836Z,88.48
2023-05-22T17:27:43.635Z,88.06
2023-05-22T17:30:12.848Z,88.80
2023-05-22T17:32:41.137Z,89.26
2023-05-22T17:35:09.828Z,88.91
2023-05-22T17:37:37.991Z,89.22
2023-05-22T17:40:07.107Z,88.79
2023-05-22T17:42:35.689Z,88.70
2023-05-22T17:45:05.825Z,88.95
2023-05-22T17:47:34.101Z,88.67
2023-05-22T17:50:05.574Z,89.33
2023-05-22T17:52:33.743Z,89.59
2023-05-22T17:55:02.370Z,89.17
2023-05-22T17:57:32.325Z,88.60
2023-05-22T18:00:01.302Z,89.04
2023-05-22T18:02:33.665Z,89.65
2023-05-22T18:05:02.627Z,89.84
2023-05-22T18:07:33.072Z,90.45
2023-05-22T18:10:01.868Z,90.24
2023-05-22T18:12:32.284Z,90.50
2023-05-22T18:15:01.049Z,90.54
2023-05-22T18:17:33.951Z,91.13
2023-05-22T18:20:06.447Z,91.07
2023-05-22T18:22:35.184Z,91.56
2023-05-22T18:25:04.234Z,91.94
2023-05-22T18:27:34.739Z,92.03
2023-05-22T18:30:04.251Z,91.76
2023-05-22T18:32:35.729Z,92.29
2023-05-22T18:35:04.722Z,92.65
2023-05-22T18:37:33.444Z,92.54
2023-05-22T18:40:02.177Z,92.95
2023-05-22T18:42:32.956Z,92.23
2023-05-22T18:45:01.317Z,92.73
2023-05-22T18:47:29.665Z,93.52
2023-05-22T18:49:59.592Z,93.58
2023-05-22T18:52:27.856Z,94.10
2023-05-22T18:54:56.129Z,94.33
2023-05-22T18:57:24.688Z,93.83
2023-05-22T18:59:53.164Z,94.16
2023-05-22T19:02:22.358Z,94.52
2023-05-22T19:04:52.141Z,94.41
2023-05-22T19:07:22.059Z,94.08
2023-05-22T19:09:50.720Z,94.29
2023-05-22T19:12:19.407Z,95.24
2023-05-22T19:14:49.900Z,94.92
2023-05-22T19:17:21.367Z,94.90
2023-05-22T19:19:49.842Z,95.82
2023-05-22T19:22:18.774Z,96.48
2023-05-22T19:24:49.190Z,96.28
2023-05-22T19:27:22.041Z,96.27
2023-05-22T19:29:50.379Z,95.70
2023-05-22T19:32:21.703Z,95.33
2023-05-22T19:34:50.070Z,95.34
2023-05-22T19:37:18.714Z,95.30
2023-05-22T19:39:48.638Z,95.38
2023-05-22T19:42:20.800Z,95.57
2023-05-22T19:44:49.411Z,95.38
2023-05-22T19:47:17.670Z,95.23
2023-05-22T19:49:45.857Z,95.56
2023-05-22T19:52:14.144Z,95.77
2023-05-22T19:54:42.282Z,95.34
2023-05-22T19:57:11.834Z,95.74
2023-05-22T19:59:43.150Z,96.09
2023-05-22T20:02:11.629Z,96.49
2023-05-22T20:04:43.491Z,97.05
2023-05-22T20:07:12.448Z,97.03
2023-05-22T20:09:40.586Z,97.08
2023-05-22T20:12:09.407Z,97.08
2023-05-22T20:14:39.629Z,96.93
2023-05-22T20:17:08.238Z,96.55
2023-05-22T20:19:36.511Z,99.14
2023-05-22T20:22:06.329Z,100.00
2023-05-22T20:24:35.694Z,100.00
2023-05-22T20:27:07.413Z,100.00
2023-05-22T20:29:35.784Z,100.00
2023-05-22T20:32:05.686Z,100.00
2023-05-22T20:34:34.076Z,100.00
2023-05-22T20:37:04.171Z,100.00
2023-05-22T20:39:32.772Z,100.00
2023-05-22T20:42:02.984Z,100.00
2023-05-22T20:44:34.767Z,100.00
2023-05-22T20:47:04.520Z,100.00
2023-05-22T20:49:34.927Z,100.00
2023-05-22T20:52:04.698Z,100.00
2023-05-22T20:54:34.838Z,100.00
2023-05-22T20:57:03.419Z,100.00
2023-05-22T20:59:33.497Z,100.00
2023-05-22T21:02:02.157Z,100.00
2023-05-22T21:04:34.659Z,100.00
2023-05-22T21:07:03.480Z,100.00
2023-05-22T21:09:33.636Z,100.00
2023-05-22T21:12:02.531Z,100.00
2023-05-22T21:14:31.038Z,100.00
2023-05-22T21:16:59.562Z,100.00
2023-05-22T21:19:28.016Z,100.00
2023-05-22T21:21:57.839Z,100.00
2023-05-22T21:24:29.548Z,100.00
2023-05-22T21:26:57.887Z,100.00
2023-05-22T21:29:26.648Z,100.00
2023-05-22T21:31:55.256Z,100.00
2023-05-22T21:34:23.800Z,100.00
2023-05-22T21:36:52.180Z,100.00
2023-05-22T21:39:21.779Z,100.00
2023-05-22T21:41:50.231Z,100.00
2023-05-22T21:44:18.674Z,100.00
2023-05-22T21:46:47.159Z,100.00
2023-05-22T21:49:16.011Z,100.00
2023-05-22T21:51:44.192Z,100.00
2023-05-22T21:54:12.595Z,100.00
2023-05-22T21:56:42.376Z,100.00
2023-05-22T21:59:10.628Z,100.00
2023-05-22T22:01:38.893Z,100.00
2023-05-22T22:04:07.290Z,100.00
2023-05-22T22:06:35.982Z,100.00
2023-05-22T22:09:04.211Z,100.00
2023-05-22T22:11:32.610Z,100.00
2023-05-22T22:14:05.123Z,100.00
2023-05-22T22:16:36.052Z,100.00
2023-05-22T22:19:04.998Z,100.00
2023-05-22T22:21:34.541Z,100.00
2023-05-22T22:24:02.777Z,100.00
2023-05-22T22:26:31.243Z,100.00
2023-05-22T22:29:04.020Z,100.00
2023-05-22T22:31:32.425Z,100.00
2023-05-22T22:34:05.687Z,100.00
2023-05-22T22:36:35.595Z,100.00
2023-05-22T22:39:04.035Z,100.00
2023-05-22T22:41:32.499Z,100.00
2023-05-22T22:44:04.961Z,100.00
2023-05-22T22:46:33.212Z,100.00
2023-05-22T22:49:02.447Z,100.00
2023-05-22T22:51:31.773Z,100.00
2023-05-22T22:54:00.121Z,100.00
2023-05-22T22:56:29.664Z,100.00
2023-05-22T22:58:58.252Z,100.00
2023-05-22T23:01:27.787Z,100.00
2023-05-22T23:03:56.124Z,100.00
2023-05-22T23:06:26.805Z,100.00
2023-05-22T23:08:55.590Z,100.00
2023-05-22T23:11:24.058Z,100.00
2023-05-22T23:13:52.778Z,100.00
2023-05-22T23:16:21.964Z,100.00
2023-05-22T23:18:51.810Z,100.00
2023-05-22T23:21:20.335Z,100.00
2023-05-22T23:23:48.660Z,100.00
2023-05-22T23:26:16.981Z,100.00
2023-05-22T23:28:45.234Z,100.00
2023-05-22T23:31:14.330Z,100.00
2023-05-22T23:33:42.696Z,100.00
2023-05-22T23:36:12.581Z,100.00
2023-05-22T23:38:42.597Z,100.00
2023-05-22T23:41:10.842Z,100.00
2023-05-22T23:43:39.105Z,100.00
2023-05-22T23:46:07.277Z,100.00
2023-05-22T23:48:35.652Z,100.00
2023-05-22T23:51:09.151Z,100.00
2023-05-22T23:53:39.115Z,100.00
2023-05-22T23:56:07.578Z,100.00
2023-05-22T23:58:35.828Z,100.00
